sensor_id;sensor_type;location;lat;lon;timestamp;pressure;altitude;pressure_sealevel;temperature;humidity
69622;BME280;56841;55.964;37.674;2022-07-12T00:02:08;98801.03;;;21.83;77.51
69622;BME280;56841;55.964;37.674;2022-07-12T00:04:34;98804.50;;;21.83;76.93
69622;BME280;56841;55.964;37.674;2022-07-12T00:06:59;98802.63;;;21.79;77.07
69622;BME280;56841;55.964;37.674;2022-07-12T00:09:25;98805.31;;;21.79;76.21
69622;BME280;56841;55.964;37.674;2022-07-12T00:11:51;98808.50;;;21.75;76.77
69622;BME280;56841;55.964;37.674;2022-07-12T00:14:17;98805.25;;;21.73;77.31
69622;BME280;56841;55.964;37.674;2022-07-12T00:16:42;98815.47;;;21.71;77.37
69622;BME280;56841;55.964;37.674;2022-07-12T00:19:08;98807.16;;;21.73;77.58
69622;BME280;56841;55.964;37.674;2022-07-12T00:21:34;98814.97;;;21.74;77.74
69622;BME280;56841;55.964;37.674;2022-07-12T00:24:00;98813.84;;;21.70;78.03
69622;BME280;56841;55.964;37.674;2022-07-12T00:26:26;98821.91;;;21.70;78.57
69622;BME280;56841;55.964;37.674;2022-07-12T00:28:52;98819.19;;;21.65;78.40
69622;BME280;56841;55.964;37.674;2022-07-12T00:31:18;98815.41;;;21.61;78.83
69622;BME280;56841;55.964;37.674;2022-07-12T00:33:45;98817.75;;;21.52;79.69
69622;BME280;56841;55.964;37.674;2022-07-12T00:36:11;98814.84;;;21.54;79.67
69622;BME280;56841;55.964;37.674;2022-07-12T00:38:37;98804.91;;;21.55;79.81
69622;BME280;56841;55.964;37.674;2022-07-12T00:41:03;98803.19;;;21.43;80.50
69622;BME280;56841;55.964;37.674;2022-07-12T00:43:29;98805.34;;;21.41;80.90
69622;BME280;56841;55.964;37.674;2022-07-12T00:45:55;98801.28;;;21.39;81.20
69622;BME280;56841;55.964;37.674;2022-07-12T00:48:20;98809.84;;;21.36;81.82
69622;BME280;56841;55.964;37.674;2022-07-12T00:50:47;98806.59;;;21.34;82.20
69622;BME280;56841;55.964;37.674;2022-07-12T00:53:13;98797.97;;;21.32;82.44
69622;BME280;56841;55.964;37.674;2022-07-12T00:55:40;98793.63;;;21.25;82.81
69622;BME280;56841;55.964;37.674;2022-07-12T00:58:06;98795.53;;;21.25;83.40
69622;BME280;56841;55.964;37.674;2022-07-12T01:00:32;98798.72;;;21.22;83.66
69622;BME280;56841;55.964;37.674;2022-07-12T01:03:01;98796.81;;;21.17;83.91
69622;BME280;56841;55.964;37.674;2022-07-12T01:05:27;98791.69;;;21.16;84.06
69622;BME280;56841;55.964;37.674;2022-07-12T01:07:54;98793.53;;;21.10;84.24
69622;BME280;56841;55.964;37.674;2022-07-12T01:10:20;98786.53;;;21.09;83.88
69622;BME280;56841;55.964;37.674;2022-07-12T01:12:46;98793.25;;;21.12;83.60
69622;BME280;56841;55.964;37.674;2022-07-12T01:15:13;98779.09;;;21.16;83.71
69622;BME280;56841;55.964;37.674;2022-07-12T01:17:39;98778.22;;;21.11;83.38
69622;BME280;56841;55.964;37.674;2022-07-12T01:20:06;98783.91;;;21.14;82.98
69622;BME280;56841;55.964;37.674;2022-07-12T01:22:34;98774.75;;;21.10;83.22
69622;BME280;56841;55.964;37.674;2022-07-12T01:25:02;98764.53;;;21.07;83.46
69622;BME280;56841;55.964;37.674;2022-07-12T01:27:30;98753.19;;;21.00;83.84
69622;BME280;56841;55.964;37.674;2022-07-12T01:29:56;98747.03;;;20.99;83.98
69622;BME280;56841;55.964;37.674;2022-07-12T01:32:22;98749.84;;;20.88;84.64
69622;BME280;56841;55.964;37.674;2022-07-12T01:34:57;98731.66;;;20.90;84.62
69622;BME280;56841;55.964;37.674;2022-07-12T01:37:25;98723.31;;;20.86;84.47
69622;BME280;56841;55.964;37.674;2022-07-12T01:39:53;98726.81;;;20.92;83.84
69622;BME280;56841;55.964;37.674;2022-07-12T01:42:23;98732.16;;;20.87;83.99
69622;BME280;56841;55.964;37.674;2022-07-12T01:44:50;98735.44;;;20.94;83.73
69622;BME280;56841;55.964;37.674;2022-07-12T01:47:21;98730.84;;;20.89;83.82
69622;BME280;56841;55.964;37.674;2022-07-12T01:49:47;98726.56;;;20.93;83.35
69622;BME280;56841;55.964;37.674;2022-07-12T01:52:13;98726.31;;;20.95;83.36
69622;BME280;56841;55.964;37.674;2022-07-12T01:54:39;98718.00;;;20.96;83.38
69622;BME280;56841;55.964;37.674;2022-07-12T01:57:05;98720.47;;;21.03;82.91
69622;BME280;56841;55.964;37.674;2022-07-12T01:59:32;98706.78;;;21.04;82.47
69622;BME280;56841;55.964;37.674;2022-07-12T02:02:00;98725.56;;;21.04;82.51
69622;BME280;56841;55.964;37.674;2022-07-12T02:04:29;98708.66;;;21.04;82.39
69622;BME280;56841;55.964;37.674;2022-07-12T02:06:55;98722.09;;;21.04;82.40
69622;BME280;56841;55.964;37.674;2022-07-12T02:09:21;98722.09;;;21.09;82.63
69622;BME280;56841;55.964;37.674;2022-07-12T02:11:47;98721.56;;;21.07;83.20
69622;BME280;56841;55.964;37.674;2022-07-12T02:14:13;98716.22;;;21.07;83.41
69622;BME280;56841;55.964;37.674;2022-07-12T02:16:40;98716.22;;;21.07;83.91
69622;BME280;56841;55.964;37.674;2022-07-12T02:19:06;98712.97;;;21.05;84.14
69622;BME280;56841;55.964;37.674;2022-07-12T02:21:33;98719.41;;;21.04;83.84
69622;BME280;56841;55.964;37.674;2022-07-12T02:24:00;98714.31;;;21.08;84.83
69622;BME280;56841;55.964;37.674;2022-07-12T02:26:27;98708.66;;;21.04;83.76
69622;BME280;56841;55.964;37.674;2022-07-12T02:28:53;98696.34;;;21.08;84.12
69622;BME280;56841;55.964;37.674;2022-07-12T02:31:19;98676.00;;;21.17;83.05
69622;BME280;56841;55.964;37.674;2022-07-12T02:33:45;98669.31;;;21.20;83.28
69622;BME280;56841;55.964;37.674;2022-07-12T02:36:11;98656.19;;;21.23;82.81
69622;BME280;56841;55.964;37.674;2022-07-12T02:38:37;98664.53;;;21.27;82.70
69622;BME280;56841;55.964;37.674;2022-07-12T02:41:03;98641.69;;;21.24;82.50
69622;BME280;56841;55.964;37.674;2022-07-12T02:43:30;98642.25;;;21.32;82.13
69622;BME280;56841;55.964;37.674;2022-07-12T02:46:06;98640.38;;;21.27;82.20
69622;BME280;56841;55.964;37.674;2022-07-12T02:48:33;98635.81;;;21.27;82.51
69622;BME280;56841;55.964;37.674;2022-07-12T02:50:59;98636.31;;;21.29;81.98
69622;BME280;56841;55.964;37.674;2022-07-12T02:53:25;98636.88;;;21.32;81.85
69622;BME280;56841;55.964;37.674;2022-07-12T02:55:51;98639.09;;;21.40;81.82
69622;BME280;56841;55.964;37.674;2022-07-12T02:58:17;98647.19;;;21.45;81.68
69622;BME280;56841;55.964;37.674;2022-07-12T03:00:43;98644.75;;;21.43;81.06
69622;BME280;56841;55.964;37.674;2022-07-12T03:03:11;98646.91;;;21.46;81.09
69622;BME280;56841;55.964;37.674;2022-07-12T03:05:39;98646.63;;;21.43;81.41
69622;BME280;56841;55.964;37.674;2022-07-12T03:08:07;98646.91;;;21.41;81.64
69622;BME280;56841;55.964;37.674;2022-07-12T03:10:33;98644.22;;;21.41;81.33
69622;BME280;56841;55.964;37.674;2022-07-12T03:12:59;98649.88;;;21.45;81.00
69622;BME280;56841;55.964;37.674;2022-07-12T03:15:25;98637.81;;;21.47;80.65
69622;BME280;56841;55.964;37.674;2022-07-12T03:17:51;98645.34;;;21.56;80.48
69622;BME280;56841;55.964;37.674;2022-07-12T03:20:17;98647.28;;;21.65;79.62
69622;BME280;56841;55.964;37.674;2022-07-12T03:22:43;98645.41;;;21.76;79.35
69622;BME280;56841;55.964;37.674;2022-07-12T03:25:12;98646.25;;;21.82;78.70
69622;BME280;56841;55.964;37.674;2022-07-12T03:27:39;98658.09;;;21.91;79.12
69622;BME280;56841;55.964;37.674;2022-07-12T03:30:07;98648.44;;;22.00;78.31
69622;BME280;56841;55.964;37.674;2022-07-12T03:32:34;98654.88;;;22.04;77.93
69622;BME280;56841;55.964;37.674;2022-07-12T03:35:00;98645.50;;;22.12;76.67
69622;BME280;56841;55.964;37.674;2022-07-12T03:37:27;98652.00;;;22.21;76.65
69622;BME280;56841;55.964;37.674;2022-07-12T03:39:53;98649.03;;;22.28;76.31
69622;BME280;56841;55.964;37.674;2022-07-12T03:42:19;98656.31;;;22.37;75.43
69622;BME280;56841;55.964;37.674;2022-07-12T03:44:45;98648.50;;;22.46;75.24
69622;BME280;56841;55.964;37.674;2022-07-12T03:47:11;98650.66;;;22.49;75.55
69622;BME280;56841;55.964;37.674;2022-07-12T03:49:37;98651.75;;;22.48;75.07
69622;BME280;56841;55.964;37.674;2022-07-12T03:52:04;98654.19;;;22.50;74.36
69622;BME280;56841;55.964;37.674;2022-07-12T03:54:30;98659.00;;;22.53;74.43
69622;BME280;56841;55.964;37.674;2022-07-12T03:56:55;98663.31;;;22.59;73.60
69622;BME280;56841;55.964;37.674;2022-07-12T03:59:44;98648.53;;;22.61;73.62
69622;BME280;56841;55.964;37.674;2022-07-12T04:02:11;98645.03;;;22.71;74.06
69622;BME280;56841;55.964;37.674;2022-07-12T04:04:37;98654.16;;;22.75;72.59
69622;BME280;56841;55.964;37.674;2022-07-12T04:07:03;98657.94;;;22.79;72.63
69622;BME280;56841;55.964;37.674;2022-07-12T04:09:29;98657.09;;;22.89;72.74
69622;BME280;56841;55.964;37.674;2022-07-12T04:11:56;98658.22;;;22.93;72.47
69622;BME280;56841;55.964;37.674;2022-07-12T04:14:21;98660.34;;;22.96;71.67
69622;BME280;56841;55.964;37.674;2022-07-12T04:16:47;98669.53;;;22.95;72.42
69622;BME280;56841;55.964;37.674;2022-07-12T04:19:13;98662.22;;;22.85;72.49
69622;BME280;56841;55.964;37.674;2022-07-12T04:21:39;98673.00;;;23.01;72.52
69622;BME280;56841;55.964;37.674;2022-07-12T04:24:05;98665.22;;;23.04;71.76
69622;BME280;56841;55.964;37.674;2022-07-12T04:26:31;98672.75;;;23.02;71.59
69622;BME280;56841;55.964;37.674;2022-07-12T04:28:58;98675.69;;;23.01;71.41
69622;BME280;56841;55.964;37.674;2022-07-12T04:31:26;98669.78;;;22.99;71.54
69622;BME280;56841;55.964;37.674;2022-07-12T04:33:54;98680.78;;;22.92;71.26
69622;BME280;56841;55.964;37.674;2022-07-12T04:36:19;98683.75;;;22.90;71.49
69622;BME280;56841;55.964;37.674;2022-07-12T04:38:45;98683.22;;;22.88;71.34
69622;BME280;56841;55.964;37.674;2022-07-12T04:41:11;98682.44;;;22.93;72.50
69622;BME280;56841;55.964;37.674;2022-07-12T04:43:36;98694.00;;;22.93;71.46
69622;BME280;56841;55.964;37.674;2022-07-12T04:46:06;98682.97;;;23.00;71.65
69622;BME280;56841;55.964;37.674;2022-07-12T04:48:32;98687.00;;;23.03;72.46
69622;BME280;56841;55.964;37.674;2022-07-12T04:50:58;98679.22;;;23.01;72.93
69622;BME280;56841;55.964;37.674;2022-07-12T04:53:24;98678.13;;;23.02;72.52
69622;BME280;56841;55.964;37.674;2022-07-12T04:55:50;98688.34;;;23.00;72.51
69622;BME280;56841;55.964;37.674;2022-07-12T04:58:16;98682.97;;;23.05;72.62
69622;BME280;56841;55.964;37.674;2022-07-12T05:00:41;98695.88;;;23.18;72.21
69622;BME280;56841;55.964;37.674;2022-07-12T05:03:11;98690.75;;;23.22;72.18
69622;BME280;56841;55.964;37.674;2022-07-12T05:05:36;98700.16;;;23.20;71.85
69622;BME280;56841;55.964;37.674;2022-07-12T05:08:03;98688.31;;;23.26;71.85
69622;BME280;56841;55.964;37.674;2022-07-12T05:10:29;98685.34;;;23.22;70.81
69622;BME280;56841;55.964;37.674;2022-07-12T05:12:55;98695.31;;;23.32;70.92
69622;BME280;56841;55.964;37.674;2022-07-12T05:15:21;98693.13;;;23.34;70.99
69622;BME280;56841;55.964;37.674;2022-07-12T05:17:47;98690.16;;;23.40;70.54
69622;BME280;56841;55.964;37.674;2022-07-12T05:20:13;98692.59;;;23.42;70.11
69622;BME280;56841;55.964;37.674;2022-07-12T05:22:39;98703.63;;;23.40;70.65
69622;BME280;56841;55.964;37.674;2022-07-12T05:25:07;98693.13;;;23.39;70.12
69622;BME280;56841;55.964;37.674;2022-07-12T05:27:35;98688.25;;;23.41;70.40
69622;BME280;56841;55.964;37.674;2022-07-12T05:30:01;98694.16;;;23.48;70.72
69622;BME280;56841;55.964;37.674;2022-07-12T05:32:29;98698.19;;;23.56;69.34
69622;BME280;56841;55.964;37.674;2022-07-12T05:34:55;98703.03;;;23.54;69.89
69622;BME280;56841;55.964;37.674;2022-07-12T05:37:21;98699.28;;;23.45;69.19
69622;BME280;56841;55.964;37.674;2022-07-12T05:39:51;98702.53;;;23.47;69.35
69622;BME280;56841;55.964;37.674;2022-07-12T05:42:17;98708.19;;;23.35;70.08
69622;BME280;56841;55.964;37.674;2022-07-12T05:44:43;98700.44;;;23.28;70.26
69622;BME280;56841;55.964;37.674;2022-07-12T05:47:09;98710.66;;;23.21;70.11
69622;BME280;56841;55.964;37.674;2022-07-12T05:49:35;98709.06;;;23.20;70.36
69622;BME280;56841;55.964;37.674;2022-07-12T05:52:01;98707.16;;;23.21;71.11
69622;BME280;56841;55.964;37.674;2022-07-12T05:54:45;98703.16;;;23.18;70.34
69622;BME280;56841;55.964;37.674;2022-07-12T05:57:11;98710.41;;;23.23;70.24
69622;BME280;56841;55.964;37.674;2022-07-12T06:02:06;98715.75;;;23.38;70.31
69622;BME280;56841;55.964;37.674;2022-07-12T06:04:32;98719.22;;;23.54;69.81
69622;BME280;56841;55.964;37.674;2022-07-12T06:06:57;98713.25;;;23.67;69.09
69622;BME280;56841;55.964;37.674;2022-07-12T06:09:23;98715.88;;;23.82;68.39
69622;BME280;56841;55.964;37.674;2022-07-12T06:11:49;98703.19;;;23.93;68.34
69622;BME280;56841;55.964;37.674;2022-07-12T06:14:15;98712.53;;;24.11;68.11
69622;BME280;56841;55.964;37.674;2022-07-12T06:16:40;98710.59;;;24.22;67.78
69622;BME280;56841;55.964;37.674;2022-07-12T06:19:06;98704.09;;;24.23;67.23
69622;BME280;56841;55.964;37.674;2022-07-12T06:21:32;98710.03;;;24.20;67.09
69622;BME280;56841;55.964;37.674;2022-07-12T06:23:58;98700.34;;;24.19;66.93
69622;BME280;56841;55.964;37.674;2022-07-12T06:26:24;98708.97;;;24.21;67.38
69622;BME280;56841;55.964;37.674;2022-07-12T06:28:50;98711.38;;;24.27;67.51
69622;BME280;56841;55.964;37.674;2022-07-12T06:31:16;98715.63;;;24.33;67.40
69622;BME280;56841;55.964;37.674;2022-07-12T06:33:42;98720.19;;;24.43;67.39
69622;BME280;56841;55.964;37.674;2022-07-12T06:36:07;98717.47;;;24.43;65.77
69622;BME280;56841;55.964;37.674;2022-07-12T06:38:33;98721.81;;;24.34;67.12
69622;BME280;56841;55.964;37.674;2022-07-12T06:40:59;98722.66;;;24.29;67.33
69622;BME280;56841;55.964;37.674;2022-07-12T06:43:26;98732.59;;;24.34;68.17
69622;BME280;56841;55.964;37.674;2022-07-12T06:45:52;98736.97;;;24.30;67.81
69622;BME280;56841;55.964;37.674;2022-07-12T06:48:19;98728.56;;;24.36;67.28
69622;BME280;56841;55.964;37.674;2022-07-12T06:50:44;98714.50;;;24.40;67.72
69622;BME280;56841;55.964;37.674;2022-07-12T06:53:14;98712.63;;;24.45;68.42
69622;BME280;56841;55.964;37.674;2022-07-12T06:55:40;98709.31;;;24.53;66.80
69622;BME280;56841;55.964;37.674;2022-07-12T06:58:07;98710.03;;;24.64;66.54
69622;BME280;56841;55.964;37.674;2022-07-12T07:00:33;98712.00;;;24.58;67.83
69622;BME280;56841;55.964;37.674;2022-07-12T07:02:59;98704.53;;;24.79;66.40
69622;BME280;56841;55.964;37.674;2022-07-12T07:05:26;98719.41;;;24.77;65.70
69622;BME280;56841;55.964;37.674;2022-07-12T07:07:52;98712.97;;;24.68;65.94
69622;BME280;56841;55.964;37.674;2022-07-12T07:10:17;98719.06;;;24.49;67.33
69622;BME280;56841;55.964;37.674;2022-07-12T07:12:43;98720.28;;;24.67;70.02
69622;BME280;56841;55.964;37.674;2022-07-12T07:15:09;98716.06;;;24.56;71.03
69622;BME280;56841;55.964;37.674;2022-07-12T07:17:35;98720.91;;;24.54;71.29
69622;BME280;56841;55.964;37.674;2022-07-12T07:20:01;98720.97;;;24.44;72.69
69622;BME280;56841;55.964;37.674;2022-07-12T07:22:28;98726.41;;;24.33;74.77
69622;BME280;56841;55.964;37.674;2022-07-12T07:24:54;98722.47;;;24.21;74.53
69622;BME280;56841;55.964;37.674;2022-07-12T07:27:20;98722.97;;;24.23;72.44
69622;BME280;56841;55.964;37.674;2022-07-12T07:29:46;98721.88;;;24.24;73.67
69622;BME280;56841;55.964;37.674;2022-07-12T07:32:30;98716.22;;;24.25;72.53
69622;BME280;56841;55.964;37.674;2022-07-12T07:34:56;98727.03;;;24.20;71.82
69622;BME280;56841;55.964;37.674;2022-07-12T07:37:22;98725.38;;;24.29;72.68
69622;BME280;56841;55.964;37.674;2022-07-12T07:39:49;98725.09;;;24.31;71.81
69622;BME280;56841;55.964;37.674;2022-07-12T07:42:15;98737.00;;;24.20;71.87
69622;BME280;56841;55.964;37.674;2022-07-12T07:44:41;98727.91;;;24.10;70.41
69622;BME280;56841;55.964;37.674;2022-07-12T07:47:07;98730.09;;;24.03;71.87
69622;BME280;56841;55.964;37.674;2022-07-12T07:49:33;98738.41;;;24.12;71.89
69622;BME280;56841;55.964;37.674;2022-07-12T07:51:59;98732.13;;;24.27;70.92
69622;BME280;56841;55.964;37.674;2022-07-12T07:54:25;98737.97;;;24.44;68.71
69622;BME280;56841;55.964;37.674;2022-07-12T07:56:51;98741.50;;;24.40;69.14
69622;BME280;56841;55.964;37.674;2022-07-12T07:59:16;98745.03;;;24.35;68.40
69622;BME280;56841;55.964;37.674;2022-07-12T08:01:43;98732.06;;;24.42;67.13
69622;BME280;56841;55.964;37.674;2022-07-12T08:04:15;98743.59;;;24.53;66.37
69622;BME280;56841;55.964;37.674;2022-07-12T08:06:41;98733.38;;;24.50;65.23
69622;BME280;56841;55.964;37.674;2022-07-12T08:09:08;98745.44;;;24.63;64.20
69622;BME280;56841;55.964;37.674;2022-07-12T08:11:34;98750.19;;;24.76;63.52
69622;BME280;56841;55.964;37.674;2022-07-12T08:14:01;98751.00;;;24.71;63.47
69622;BME280;56841;55.964;37.674;2022-07-12T08:16:29;98751.25;;;24.75;64.34
69622;BME280;56841;55.964;37.674;2022-07-12T08:18:55;98752.69;;;25.01;63.89
69622;BME280;56841;55.964;37.674;2022-07-12T08:21:21;98749.94;;;25.06;63.76
69622;BME280;56841;55.964;37.674;2022-07-12T08:23:46;98753.72;;;25.05;62.74
69622;BME280;56841;55.964;37.674;2022-07-12T08:26:13;98757.28;;;25.01;63.46
69622;BME280;56841;55.964;37.674;2022-07-12T08:28:38;98761.66;;;24.92;63.41
69622;BME280;56841;55.964;37.674;2022-07-12T08:31:04;98762.56;;;24.82;63.85
69622;BME280;56841;55.964;37.674;2022-07-12T08:33:30;98752.56;;;24.82;63.79
69622;BME280;56841;55.964;37.674;2022-07-12T08:35:55;98761.81;;;25.05;63.60
69622;BME280;56841;55.964;37.674;2022-07-12T08:38:21;98761.72;;;25.21;62.21
69622;BME280;56841;55.964;37.674;2022-07-12T08:40:47;98762.03;;;25.43;62.00
69622;BME280;56841;55.964;37.674;2022-07-12T08:43:13;98761.22;;;25.72;62.04
69622;BME280;56841;55.964;37.674;2022-07-12T08:45:39;98766.97;;;25.89;61.37
69622;BME280;56841;55.964;37.674;2022-07-12T08:48:08;98762.94;;;25.87;60.60
69622;BME280;56841;55.964;37.674;2022-07-12T08:50:34;98772.03;;;25.72;60.93
69622;BME280;56841;55.964;37.674;2022-07-12T08:53:00;98774.16;;;25.75;61.20
69622;BME280;56841;55.964;37.674;2022-07-12T08:57:54;98771.94;;;25.53;61.61
69622;BME280;56841;55.964;37.674;2022-07-12T09:00:21;98781.56;;;25.64;62.54
69622;BME280;56841;55.964;37.674;2022-07-12T09:05:24;98792.69;;;26.11;60.63
69622;BME280;56841;55.964;37.674;2022-07-12T09:07:51;98787.13;;;26.21;59.87
69622;BME280;56841;55.964;37.674;2022-07-12T09:10:26;98798.25;;;26.19;59.59
69622;BME280;56841;55.964;37.674;2022-07-12T09:12:52;98793.66;;;26.20;60.37
69622;BME280;56841;55.964;37.674;2022-07-12T09:15:19;98794.75;;;26.19;60.25
69622;BME280;56841;55.964;37.674;2022-07-12T09:18:01;98791.66;;;26.26;59.72
69622;BME280;56841;55.964;37.674;2022-07-12T09:20:35;98800.66;;;26.21;60.06
69622;BME280;56841;55.964;37.674;2022-07-12T09:23:05;98799.34;;;26.18;59.88
69622;BME280;56841;55.964;37.674;2022-07-12T09:25:32;98811.13;;;26.09;60.84
69622;BME280;56841;55.964;37.674;2022-07-12T09:28:00;98803.84;;;26.04;61.56
69622;BME280;56841;55.964;37.674;2022-07-12T09:30:29;98814.78;;;25.94;60.60
69622;BME280;56841;55.964;37.674;2022-07-12T09:36:01;98804.88;;;25.84;60.21
69622;BME280;56841;55.964;37.674;2022-07-12T09:41:16;98810.72;;;25.96;59.74
69622;BME280;56841;55.964;37.674;2022-07-12T09:43:43;98805.34;;;25.91;59.48
69622;BME280;56841;55.964;37.674;2022-07-12T09:46:09;98804.81;;;25.65;59.23
69622;BME280;56841;55.964;37.674;2022-07-12T09:48:37;98810.34;;;25.79;58.70
69622;BME280;56841;55.964;37.674;2022-07-12T09:51:03;98810.34;;;25.79;58.79
69622;BME280;56841;55.964;37.674;2022-07-12T09:53:44;98806.41;;;25.95;57.56
69622;BME280;56841;55.964;37.674;2022-07-12T09:56:12;98815.66;;;26.13;56.50
69622;BME280;56841;55.964;37.674;2022-07-12T09:58:57;98820.19;;;26.18;56.24
69622;BME280;56841;55.964;37.674;2022-07-12T10:01:25;98793.78;;;25.57;55.38
69622;BME280;56841;55.964;37.674;2022-07-12T10:03:51;98800.00;;;25.57;56.40
69622;BME280;56841;55.964;37.674;2022-07-12T10:06:24;98804.84;;;25.89;55.47
69622;BME280;56841;55.964;37.674;2022-07-12T10:08:51;98808.28;;;25.71;54.67
69622;BME280;56841;55.964;37.674;2022-07-12T10:11:18;98799.34;;;25.94;53.88
69622;BME280;56841;55.964;37.674;2022-07-12T10:13:45;98805.63;;;25.90;53.64
69622;BME280;56841;55.964;37.674;2022-07-12T10:16:14;98806.06;;;26.21;53.04
69622;BME280;56841;55.964;37.674;2022-07-12T10:18:40;98811.31;;;26.36;52.71
69622;BME280;56841;55.964;37.674;2022-07-12T10:21:20;98813.06;;;26.46;52.43
69622;BME280;56841;55.964;37.674;2022-07-12T10:23:47;98804.84;;;26.75;52.26
69622;BME280;56841;55.964;37.674;2022-07-12T10:28:56;98816.31;;;27.05;51.47
69622;BME280;56841;55.964;37.674;2022-07-12T10:31:28;98811.84;;;26.76;51.61
69622;BME280;56841;55.964;37.674;2022-07-12T10:39:27;98821.38;;;26.55;51.98
69622;BME280;56841;55.964;37.674;2022-07-12T10:44:40;98827.22;;;27.19;51.46
69622;BME280;56841;55.964;37.674;2022-07-12T10:47:08;98826.63;;;27.03;51.24
69622;BME280;56841;55.964;37.674;2022-07-12T10:49:34;98837.03;;;26.58;51.53
69622;BME280;56841;55.964;37.674;2022-07-12T10:54:41;98839.88;;;26.66;52.46
69622;BME280;56841;55.964;37.674;2022-07-12T10:57:09;98843.03;;;26.92;51.29
69622;BME280;56841;55.964;37.674;2022-07-12T10:59:36;98841.50;;;27.05;51.45
69622;BME280;56841;55.964;37.674;2022-07-12T11:02:03;98839.88;;;27.23;51.42
69622;BME280;56841;55.964;37.674;2022-07-12T11:04:30;98838.47;;;27.07;50.62
69622;BME280;56841;55.964;37.674;2022-07-12T11:07:01;98843.63;;;26.89;51.43
69622;BME280;56841;55.964;37.674;2022-07-12T11:09:28;98830.81;;;26.76;50.73
69622;BME280;56841;55.964;37.674;2022-07-12T11:11:54;98846.63;;;26.45;51.23
69622;BME280;56841;55.964;37.674;2022-07-12T11:14:28;98835.88;;;26.40;51.75
69622;BME280;56841;55.964;37.674;2022-07-12T11:16:58;98847.91;;;26.53;51.52
69622;BME280;56841;55.964;37.674;2022-07-12T11:19:29;98843.69;;;27.22;50.22
69622;BME280;56841;55.964;37.674;2022-07-12T11:21:57;98852.13;;;27.53;49.76
69622;BME280;56841;55.964;37.674;2022-07-12T11:24:27;98844.66;;;27.45;48.88
69622;BME280;56841;55.964;37.674;2022-07-12T11:26:54;98848.19;;;28.47;45.94
69622;BME280;56841;55.964;37.674;2022-07-12T11:29:21;98848.44;;;28.73;43.24
69622;BME280;56841;55.964;37.674;2022-07-12T11:31:47;98840.28;;;28.73;42.08
69622;BME280;56841;55.964;37.674;2022-07-12T11:36:50;98854.38;;;29.34;40.20
69622;BME280;56841;55.964;37.674;2022-07-12T11:39:16;98853.88;;;30.26;39.08
69622;BME280;56841;55.964;37.674;2022-07-12T11:41:54;98853.38;;;31.07;36.86
69622;BME280;56841;55.964;37.674;2022-07-12T11:44:21;98864.56;;;31.49;35.67
69622;BME280;56841;55.964;37.674;2022-07-12T11:46:50;98846.19;;;30.19;36.67
69622;BME280;56841;55.964;37.674;2022-07-12T11:49:17;98850.72;;;30.01;36.38
69622;BME280;56841;55.964;37.674;2022-07-12T11:51:44;98856.97;;;30.33;35.62
69622;BME280;56841;55.964;37.674;2022-07-12T11:54:11;98864.59;;;31.23;35.42
69622;BME280;56841;55.964;37.674;2022-07-12T11:56:38;98848.22;;;32.04;32.87
69622;BME280;56841;55.964;37.674;2022-07-12T11:59:04;98847.75;;;32.83;31.68
69622;BME280;56841;55.964;37.674;2022-07-12T12:01:30;98855.19;;;32.23;32.08
69622;BME280;56841;55.964;37.674;2022-07-12T12:03:55;98856.81;;;32.95;31.76
69622;BME280;56841;55.964;37.674;2022-07-12T12:06:22;98854.06;;;31.77;32.87
69622;BME280;56841;55.964;37.674;2022-07-12T12:08:50;98860.44;;;31.98;32.93
69622;BME280;56841;55.964;37.674;2022-07-12T12:11:16;98866.56;;;31.95;32.98
69622;BME280;56841;55.964;37.674;2022-07-12T12:13:42;98857.22;;;31.96;32.86
69622;BME280;56841;55.964;37.674;2022-07-12T12:16:10;98864.78;;;32.29;32.79
69622;BME280;56841;55.964;37.674;2022-07-12T12:18:38;98867.50;;;31.09;34.60
69622;BME280;56841;55.964;37.674;2022-07-12T12:21:06;98864.19;;;30.46;35.42
69622;BME280;56841;55.964;37.674;2022-07-12T12:23:34;98871.06;;;29.95;36.50
69622;BME280;56841;55.964;37.674;2022-07-12T12:26:17;98862.13;;;28.54;38.49
69622;BME280;56841;55.964;37.674;2022-07-12T12:28:53;98873.50;;;28.29;39.05
69622;BME280;56841;55.964;37.674;2022-07-12T12:31:21;98880.25;;;27.71;40.50
69622;BME280;56841;55.964;37.674;2022-07-12T12:33:52;98874.78;;;27.44;41.65
69622;BME280;56841;55.964;37.674;2022-07-12T12:36:23;98884.47;;;27.12;42.72
69622;BME280;56841;55.964;37.674;2022-07-12T12:38:50;98882.84;;;27.11;43.02
69622;BME280;56841;55.964;37.674;2022-07-12T12:41:17;98879.09;;;29.24;39.47
69622;BME280;56841;55.964;37.674;2022-07-12T12:43:43;98882.09;;;30.96;36.21
69622;BME280;56841;55.964;37.674;2022-07-12T12:46:09;98890.72;;;31.58;35.68
69622;BME280;56841;55.964;37.674;2022-07-12T12:48:35;98886.22;;;32.77;33.99
69622;BME280;56841;55.964;37.674;2022-07-12T12:51:07;98876.66;;;33.25;33.11
69622;BME280;56841;55.964;37.674;2022-07-12T12:53:34;98874.63;;;32.51;33.75
69622;BME280;56841;55.964;37.674;2022-07-12T12:56:05;98879.25;;;30.43;36.63
69622;BME280;56841;55.964;37.674;2022-07-12T12:58:32;98886.72;;;29.89;37.43
69622;BME280;56841;55.964;37.674;2022-07-12T13:00:58;98893.56;;;28.97;39.13
69622;BME280;56841;55.964;37.674;2022-07-12T13:03:25;98886.88;;;28.25;40.94
69622;BME280;56841;55.964;37.674;2022-07-12T13:05:51;98893.69;;;27.81;42.51
69622;BME280;56841;55.964;37.674;2022-07-12T13:08:17;98896.69;;;27.47;43.08
69622;BME280;56841;55.964;37.674;2022-07-12T13:10:44;98909.38;;;27.14;44.08
69622;BME280;56841;55.964;37.674;2022-07-12T13:13:11;98915.88;;;26.94;44.57
69622;BME280;56841;55.964;37.674;2022-07-12T13:15:40;98921.00;;;26.53;45.89
69622;BME280;56841;55.964;37.674;2022-07-12T13:18:06;98918.31;;;25.99;46.58
69622;BME280;56841;55.964;37.674;2022-07-12T13:20:33;98918.09;;;25.62;47.64